Terminal Aerodrome Forecast
Issued by NWS North Platte, NE

Home | Current Version | Previous Version | Graphics & Text | Print | Product List | Glossary On
Versions: 1 2 3 4 5 6 7 8 9 10 11 12 13 14 15 16 17 18 19
000
FTUS43 KLBF 230100 AAA
TAFVTN
TAF AMD
KVTN 230112Z 2301/2324 18012KT P6SM BKN100
     FM230200 18010KT P6SM OVC080
      TEMPO 2302/2306 P6SM -SHRA OVC040
     FM230600 16014KT P6SM OVC040
      TEMPO 2306/2310 -RA SCT015 OVC025
     FM231200 18010KT P6SM OVC020
     FM231500 19015KT P6SM OVC050
     FM232000 18011KT P6SM BKN100=

USA.gov is the U.S. government's official web portal to all federal, state and local government web resources and services.